createdAt,value
2023-07-28T00:01:31.861Z,81.50
2023-07-28T00:04:01.605Z,81.60
2023-07-28T00:06:28.612Z,81.80
2023-07-28T00:08:58.080Z,82.10
2023-07-28T00:11:27.337Z,82.30
2023-07-28T00:13:54.813Z,82.30
2023-07-28T00:16:21.817Z,81.90
2023-07-28T00:18:50.124Z,82.10
2023-07-28T00:21:16.980Z,82.10
2023-07-28T00:23:45.172Z,81.90
2023-07-28T00:26:11.959Z,82.20
2023-07-28T00:28:39.055Z,81.60
2023-07-28T00:31:06.125Z,81.90
2023-07-28T00:33:35.633Z,81.70
2023-07-28T00:36:02.795Z,81.30
2023-07-28T00:38:33.136Z,81.00
2023-07-28T00:41:01.025Z,81.10
2023-07-28T00:43:28.069Z,81.10
2023-07-28T00:45:55.179Z,81.00
2023-07-28T00:48:24.281Z,80.20
2023-07-28T00:50:52.605Z,80.00
2023-07-28T00:53:20.786Z,80.30
2023-07-28T00:55:49.670Z,80.40
2023-07-28T00:58:17.014Z,80.20
2023-07-28T01:00:44.299Z,79.90
2023-07-28T01:30:04.552Z,79.20
2023-07-28T01:48:46.818Z,80.40
2023-07-28T01:51:13.915Z,81.00
2023-07-28T01:53:45.633Z,81.20
2023-07-28T01:56:12.653Z,81.30
2023-07-28T01:58:39.558Z,81.10
2023-07-28T02:03:49.844Z,80.50
2023-07-28T02:08:56.289Z,79.70
2023-07-28T02:22:13.168Z,81.80
2023-07-28T02:24:40.389Z,81.90
2023-07-28T02:27:08.170Z,81.90
2023-07-28T02:29:36.560Z,81.90
2023-07-28T02:32:12.456Z,81.90
2023-07-28T02:34:39.248Z,81.70
2023-07-28T02:37:08.825Z,81.90
2023-07-28T02:39:38.003Z,82.00
2023-07-28T02:42:06.030Z,81.90
2023-07-28T02:44:33.184Z,81.90
2023-07-28T02:46:59.987Z,81.70
2023-07-28T02:49:29.151Z,81.80
2023-07-28T02:51:55.998Z,81.70
2023-07-28T02:54:25.360Z,81.80
2023-07-28T02:56:54.962Z,81.60
2023-07-28T02:59:24.351Z,81.80
2023-07-28T03:01:53.251Z,82.00
2023-07-28T03:04:23.894Z,81.80
2023-07-28T03:06:52.320Z,81.70
2023-07-28T03:09:19.120Z,81.80
2023-07-28T03:11:49.799Z,82.40
2023-07-28T03:14:16.853Z,82.40
2023-07-28T03:16:43.840Z,83.10
2023-07-28T03:19:11.372Z,83.00
2023-07-28T03:21:40.254Z,83.30
2023-07-28T03:24:09.955Z,83.10
2023-07-28T03:26:37.174Z,83.00
2023-07-28T03:29:06.574Z,82.70
2023-07-28T03:31:37.958Z,82.50
2023-07-28T03:34:05.296Z,82.40
2023-07-28T03:36:32.540Z,82.10
2023-07-28T03:39:00.490Z,81.80
2023-07-28T03:41:30.178Z,81.50
2023-07-28T03:43:57.406Z,81.30
2023-07-28T03:46:24.292Z,81.40
2023-07-28T03:48:52.168Z,81.10
2023-07-28T03:51:20.128Z,81.30
2023-07-28T03:53:52.789Z,81.10
2023-07-28T03:56:19.807Z,80.90
2023-07-28T03:58:47.952Z,80.40
2023-07-28T04:01:16.234Z,79.90
2023-07-28T04:03:43.069Z,80.00
2023-07-28T04:06:17.024Z,79.40
2023-07-28T04:08:46.103Z,79.30
2023-07-28T04:11:37.131Z,79.10
2023-07-28T04:14:07.349Z,78.40
2023-07-28T04:16:42.086Z,78.50
2023-07-28T04:19:09.476Z,78.40
2023-07-28T04:21:41.864Z,77.50
2023-07-28T04:24:10.003Z,76.80
2023-07-28T04:26:37.381Z,76.80
2023-07-28T04:29:04.644Z,75.40
2023-07-28T04:31:32.581Z,75.10
2023-07-28T04:34:02.672Z,74.50
2023-07-28T04:36:29.731Z,74.20
2023-07-28T04:38:56.534Z,74.40
2023-07-28T04:41:28.784Z,74.20
2023-07-28T04:43:56.831Z,74.20
2023-07-28T04:46:23.563Z,74.30
2023-07-28T04:48:50.780Z,74.10
2023-07-28T04:51:22.609Z,74.30
2023-07-28T04:53:49.426Z,73.60
2023-07-28T04:56:18.059Z,72.90
2023-07-28T04:58:44.930Z,70.20
2023-07-28T05:01:14.171Z,65.30
2023-07-28T05:03:43.411Z,64.20
2023-07-28T05:06:10.211Z,65.00
2023-07-28T05:08:37.628Z,65.60
2023-07-28T05:11:05.073Z,66.60
2023-07-28T05:13:32.101Z,67.20
2023-07-28T05:16:00.970Z,67.60
2023-07-28T05:18:27.976Z,65.40
2023-07-28T05:20:54.923Z,57.70
2023-07-28T05:23:22.434Z,53.70
2023-07-28T05:25:49.747Z,54.00
2023-07-28T05:28:18.099Z,52.40
2023-07-28T05:30:44.902Z,52.90
2023-07-28T05:33:13.029Z,54.30
2023-07-28T05:35:39.808Z,56.70
2023-07-28T05:38:07.338Z,54.50
2023-07-28T05:40:35.554Z,49.30
2023-07-28T05:43:02.557Z,50.50
2023-07-28T05:45:29.680Z,53.00
2023-07-28T05:47:56.681Z,56.00
2023-07-28T05:50:23.707Z,58.50
2023-07-28T05:52:50.524Z,60.80
2023-07-28T05:55:17.362Z,62.20
2023-07-28T05:57:45.318Z,64.30
2023-07-28T06:00:13.055Z,65.10
2023-07-28T06:02:40.725Z,66.00
2023-07-28T06:05:09.033Z,66.30
2023-07-28T06:07:36.090Z,67.10
2023-07-28T06:10:03.259Z,66.80
2023-07-28T06:12:31.309Z,66.40
2023-07-28T06:14:58.069Z,66.40
2023-07-28T06:17:25.913Z,66.00
2023-07-28T06:19:53.737Z,66.80
2023-07-28T06:22:20.777Z,67.20
2023-07-28T06:24:49.588Z,66.80
2023-07-28T06:27:16.765Z,66.10
2023-07-28T06:29:44.786Z,65.90
2023-07-28T06:32:14.400Z,66.40
2023-07-28T06:34:43.019Z,66.40
2023-07-28T06:37:10.420Z,66.40
2023-07-28T06:39:37.562Z,67.60
2023-07-28T06:42:05.353Z,67.10
2023-07-28T06:44:34.220Z,67.10
2023-07-28T06:47:01.967Z,66.30
2023-07-28T06:49:30.719Z,65.70
2023-07-28T06:51:58.132Z,64.70
2023-07-28T06:54:27.310Z,63.20
2023-07-28T06:56:54.287Z,61.30
2023-07-28T06:59:22.671Z,60.10
2023-07-28T07:01:54.776Z,60.50
2023-07-28T07:04:22.026Z,61.10
2023-07-28T07:06:48.842Z,63.10
2023-07-28T07:09:16.086Z,63.90
2023-07-28T07:11:46.237Z,65.50
2023-07-28T07:14:13.268Z,66.60
2023-07-28T07:16:40.708Z,67.60
2023-07-28T07:19:07.680Z,67.90
2023-07-28T07:21:34.853Z,66.60
2023-07-28T07:24:06.116Z,65.60
2023-07-28T07:26:33.345Z,65.70
2023-07-28T07:29:00.234Z,64.70
2023-07-28T07:31:29.463Z,63.00
2023-07-28T07:33:56.556Z,62.10
2023-07-28T07:36:23.610Z,62.00
2023-07-28T07:38:51.105Z,62.70
2023-07-28T07:41:21.532Z,62.60
2023-07-28T07:44:00.962Z,61.90
2023-07-28T07:46:27.945Z,61.70
2023-07-28T07:48:54.949Z,62.80
2023-07-28T07:51:21.995Z,62.90
2023-07-28T07:53:54.098Z,62.40
2023-07-28T07:56:25.155Z,61.40
2023-07-28T07:58:52.443Z,59.70
2023-07-28T08:01:19.378Z,56.30
2023-07-28T08:03:53.370Z,57.10
2023-07-28T08:06:20.507Z,55.40
2023-07-28T08:08:48.255Z,53.30
2023-07-28T08:11:15.367Z,53.90
2023-07-28T08:13:44.167Z,55.60
2023-07-28T08:16:11.220Z,56.90
2023-07-28T08:18:39.648Z,56.60
2023-07-28T08:21:09.645Z,57.60
2023-07-28T08:23:46.878Z,57.70
2023-07-28T08:26:15.776Z,56.30
2023-07-28T08:28:45.881Z,57.40
2023-07-28T08:31:18.376Z,53.90
2023-07-28T08:33:50.758Z,54.00
2023-07-28T08:36:21.284Z,52.00
2023-07-28T08:38:50.649Z,51.00
2023-07-28T08:41:21.121Z,52.30
2023-07-28T08:43:48.036Z,50.70
2023-07-28T08:46:21.049Z,51.30
2023-07-28T08:48:49.233Z,50.20
2023-07-28T08:51:19.191Z,49.00
2023-07-28T08:53:47.515Z,47.90
2023-07-28T08:56:14.347Z,48.50
2023-07-28T08:58:41.476Z,47.70
2023-07-28T09:01:10.380Z,47.30
2023-07-28T09:03:42.525Z,45.10
2023-07-28T09:06:11.972Z,47.00
2023-07-28T09:08:38.929Z,45.50
2023-07-28T09:11:08.580Z,45.80
2023-07-28T09:13:42.520Z,45.20
2023-07-28T09:16:20.207Z,46.30
2023-07-28T09:18:50.980Z,45.50
2023-07-28T09:21:20.306Z,45.50
2023-07-28T09:23:48.184Z,45.00
2023-07-28T09:26:17.170Z,44.60
2023-07-28T09:28:48.466Z,42.40
2023-07-28T09:31:15.696Z,44.50
2023-07-28T09:33:48.202Z,43.10
2023-07-28T09:36:21.002Z,43.00
2023-07-28T09:38:50.557Z,44.00
2023-07-28T09:41:17.274Z,44.30
2023-07-28T09:43:49.916Z,41.50
2023-07-28T09:46:20.154Z,42.90
2023-07-28T09:48:57.816Z,39.90
2023-07-28T09:51:31.995Z,44.80
2023-07-28T09:54:07.539Z,44.20
2023-07-28T09:56:35.316Z,42.00
2023-07-28T09:59:06.929Z,42.50
2023-07-28T10:01:37.725Z,44.30
2023-07-28T10:04:05.955Z,45.90
2023-07-28T10:06:35.987Z,46.20
2023-07-28T10:09:06.355Z,46.40
2023-07-28T10:11:35.575Z,44.90
2023-07-28T10:14:02.887Z,47.80
2023-07-28T10:16:39.966Z,48.20
2023-07-28T10:19:17.237Z,47.60
2023-07-28T10:21:44.266Z,47.30
2023-07-28T10:24:11.509Z,47.20
2023-07-28T10:26:46.925Z,49.90
2023-07-28T10:29:16.564Z,49.90
2023-07-28T10:31:54.295Z,48.50
2023-07-28T10:34:23.003Z,47.60
2023-07-28T10:37:01.441Z,51.40
2023-07-28T10:39:28.339Z,51.00
2023-07-28T10:42:10.554Z,47.40
2023-07-28T10:44:40.991Z,49.00
2023-07-28T10:47:11.563Z,49.60
2023-07-28T10:49:38.963Z,49.70
2023-07-28T10:52:05.722Z,50.80
2023-07-28T10:54:33.846Z,47.40
2023-07-28T10:57:07.250Z,51.00
2023-07-28T10:59:34.438Z,50.70
2023-07-28T11:02:02.566Z,48.60
2023-07-28T11:04:29.978Z,46.30
2023-07-28T11:06:57.153Z,48.10
2023-07-28T11:09:25.722Z,46.60
2023-07-28T11:11:53.258Z,47.40
2023-07-28T11:14:23.137Z,44.40
2023-07-28T11:16:53.940Z,47.40
2023-07-28T11:19:26.204Z,47.60
2023-07-28T11:21:55.464Z,48.20
2023-07-28T11:24:23.917Z,50.90
2023-07-28T11:26:51.828Z,46.80
2023-07-28T11:29:21.086Z,51.40
2023-07-28T11:31:50.014Z,52.00
2023-07-28T11:34:17.929Z,50.40
2023-07-28T11:36:45.449Z,48.60
2023-07-28T11:39:12.820Z,49.30
2023-07-28T11:41:41.165Z,49.10
2023-07-28T11:44:08.505Z,48.20
2023-07-28T11:46:42.361Z,49.60
2023-07-28T11:49:25.334Z,48.80
2023-07-28T11:51:57.042Z,47.90
2023-07-28T11:54:26.157Z,43.80
2023-07-28T11:56:56.726Z,42.10
2023-07-28T11:59:23.597Z,47.00
2023-07-28T12:07:18.337Z,46.70
2023-07-28T12:10:04.450Z,44.60
2023-07-28T12:20:58.430Z,43.50
2023-07-28T12:25:56.949Z,42.80
2023-07-28T12:28:24.075Z,44.10
2023-07-28T12:30:53.313Z,41.80
2023-07-28T12:33:22.356Z,43.10
2023-07-28T12:35:51.386Z,41.60
2023-07-28T12:48:21.728Z,43.50
2023-07-28T12:50:48.779Z,48.40
2023-07-28T12:53:19.763Z,50.60
2023-07-28T13:03:23.632Z,55.00
2023-07-28T13:05:50.486Z,55.10
2023-07-28T13:08:17.580Z,55.10
2023-07-28T13:13:15.565Z,55.80
2023-07-28T13:15:42.670Z,54.40
2023-07-28T13:18:09.949Z,54.50
2023-07-28T13:20:37.952Z,54.70
2023-07-28T13:23:04.974Z,53.30
2023-07-28T13:25:32.026Z,52.60
2023-07-28T13:27:58.887Z,51.70
2023-07-28T13:30:27.408Z,50.30
2023-07-28T13:32:55.799Z,49.70
2023-07-28T13:35:22.691Z,48.60
2023-07-28T13:37:49.430Z,49.50
2023-07-28T13:40:17.857Z,49.30
2023-07-28T13:42:44.941Z,50.70
2023-07-28T13:45:11.726Z,49.10
2023-07-28T13:47:39.886Z,47.50
2023-07-28T13:50:10.576Z,49.30
2023-07-28T13:52:37.675Z,48.30
2023-07-28T13:57:40.510Z,47.90
2023-07-28T14:00:10.398Z,47.00
2023-07-28T14:02:38.492Z,47.90
2023-07-28T14:05:09.245Z,47.70
2023-07-28T14:07:37.989Z,48.30
2023-07-28T14:10:07.426Z,47.70
2023-07-28T14:12:34.713Z,49.10
2023-07-28T14:15:01.590Z,50.80
2023-07-28T14:17:28.404Z,50.20
2023-07-28T14:19:55.176Z,49.60
2023-07-28T14:22:21.958Z,50.90
2023-07-28T14:24:49.434Z,50.20
2023-07-28T14:27:17.696Z,51.50
2023-07-28T14:29:44.801Z,49.70
2023-07-28T14:32:11.710Z,50.40
2023-07-28T14:34:39.208Z,51.60
2023-07-28T14:37:06.738Z,52.40
2023-07-28T14:39:37.689Z,52.80
2023-07-28T14:42:07.875Z,53.00
2023-07-28T14:44:34.674Z,54.10
2023-07-28T14:47:01.411Z,54.50
2023-07-28T14:49:29.848Z,54.70
2023-07-28T14:51:56.678Z,56.30
2023-07-28T14:54:24.788Z,56.00
2023-07-28T14:56:51.970Z,56.60
2023-07-28T14:59:19.387Z,57.20
2023-07-28T15:01:48.330Z,57.10
2023-07-28T15:04:16.706Z,57.10
2023-07-28T15:06:45.702Z,57.10
2023-07-28T15:09:12.968Z,58.00
2023-07-28T15:11:39.689Z,55.40
2023-07-28T15:14:07.976Z,55.20
2023-07-28T15:16:34.904Z,56.50
2023-07-28T15:19:02.009Z,55.00
2023-07-28T15:21:30.779Z,55.60
2023-07-28T15:23:57.862Z,55.60
2023-07-28T15:26:25.060Z,56.20
2023-07-28T15:28:56.338Z,57.90
2023-07-28T15:31:23.135Z,59.60
2023-07-28T15:33:50.051Z,58.00
2023-07-28T15:36:17.057Z,61.10
2023-07-28T15:38:44.928Z,59.10
2023-07-28T15:41:13.102Z,59.80
2023-07-28T15:43:40.328Z,61.10
2023-07-28T15:46:08.725Z,60.80
2023-07-28T15:48:35.996Z,59.50
2023-07-28T15:51:02.758Z,62.50
2023-07-28T15:53:30.975Z,61.40
2023-07-28T15:55:57.821Z,61.80
2023-07-28T15:58:24.614Z,63.20
2023-07-28T16:00:51.525Z,64.60
2023-07-28T16:03:18.316Z,66.30
2023-07-28T16:05:45.748Z,67.20
2023-07-28T16:08:13.189Z,68.30
2023-07-28T16:10:39.994Z,68.40
2023-07-28T16:13:06.974Z,68.80
2023-07-28T16:15:34.444Z,68.20
2023-07-28T16:18:01.557Z,68.80
2023-07-28T16:20:28.259Z,68.20
2023-07-28T16:22:56.602Z,68.30
2023-07-28T16:25:24.400Z,68.60
2023-07-28T16:27:51.430Z,68.20
2023-07-28T16:30:19.002Z,69.00
2023-07-28T16:32:45.991Z,67.40
2023-07-28T16:35:14.201Z,66.40
2023-07-28T16:37:41.222Z,66.50
2023-07-28T16:40:08.672Z,64.90
2023-07-28T16:42:35.734Z,64.60
2023-07-28T16:45:02.817Z,63.40
2023-07-28T16:47:32.134Z,63.00
2023-07-28T16:49:59.118Z,63.30
2023-07-28T16:52:28.003Z,63.90
2023-07-28T16:54:54.997Z,63.80
2023-07-28T16:57:22.012Z,64.00
2023-07-28T16:59:48.924Z,65.80
2023-07-28T17:02:17.311Z,65.70
2023-07-28T17:04:44.374Z,66.60
2023-07-28T17:07:12.176Z,65.50
2023-07-28T17:09:38.941Z,65.50
2023-07-28T17:12:07.383Z,64.80
2023-07-28T17:14:34.143Z,64.60
2023-07-28T17:17:01.475Z,64.90
2023-07-28T17:19:28.325Z,64.30
2023-07-28T17:21:55.048Z,65.90
2023-07-28T17:24:21.942Z,66.30
2023-07-28T17:26:48.856Z,66.40
2023-07-28T17:29:16.464Z,65.50
2023-07-28T17:31:43.635Z,66.40
2023-07-28T17:34:10.407Z,67.10
2023-07-28T17:36:37.196Z,68.10
2023-07-28T17:39:03.990Z,68.10
2023-07-28T17:41:30.899Z,68.80
2023-07-28T17:43:57.640Z,69.30
2023-07-28T17:46:28.114Z,70.00
2023-07-28T17:48:54.853Z,70.70
2023-07-28T17:51:21.852Z,71.20
2023-07-28T17:53:48.672Z,71.60
2023-07-28T17:56:17.608Z,72.40
2023-07-28T17:58:47.680Z,72.40
2023-07-28T18:01:14.695Z,72.90
2023-07-28T18:03:41.605Z,73.60
2023-07-28T18:06:08.437Z,73.80
2023-07-28T18:08:36.621Z,74.10
2023-07-28T18:11:03.967Z,74.40
2023-07-28T18:13:31.365Z,74.10
2023-07-28T18:15:58.207Z,74.10
2023-07-28T18:18:25.049Z,74.80
2023-07-28T18:20:51.861Z,75.40
2023-07-28T18:23:19.005Z,75.10
2023-07-28T18:25:47.074Z,75.40
2023-07-28T18:28:14.357Z,75.40
2023-07-28T18:30:41.864Z,75.50
2023-07-28T18:33:13.546Z,75.90
2023-07-28T18:35:40.392Z,75.80
2023-07-28T18:38:07.536Z,76.10
2023-07-28T18:40:34.392Z,76.40
2023-07-28T18:43:02.588Z,76.80
2023-07-28T18:45:29.655Z,76.90
2023-07-28T18:47:56.784Z,77.30
2023-07-28T18:50:23.826Z,77.30
2023-07-28T18:52:50.585Z,77.60
2023-07-28T18:55:17.927Z,77.70
2023-07-28T18:57:44.761Z,78.00
2023-07-28T19:00:14.545Z,78.50
2023-07-28T19:02:41.925Z,78.90
2023-07-28T19:05:09.996Z,79.10
2023-07-28T19:07:37.270Z,79.50
2023-07-28T19:10:04.852Z,79.50
2023-07-28T19:12:32.938Z,79.30
2023-07-28T19:14:59.772Z,79.50
2023-07-28T19:17:27.215Z,79.60
2023-07-28T19:19:54.124Z,79.40
2023-07-28T19:22:20.965Z,80.30
2023-07-28T19:24:47.750Z,81.00
2023-07-28T19:27:14.882Z,82.40
2023-07-28T19:29:43.323Z,81.90
2023-07-28T19:32:10.418Z,82.40
2023-07-28T19:34:39.538Z,82.40
2023-07-28T19:37:06.606Z,82.40
2023-07-28T19:39:33.576Z,82.70
2023-07-28T19:42:00.318Z,83.00
2023-07-28T19:44:39.972Z,82.90
2023-07-28T19:47:09.155Z,83.10
2023-07-28T19:49:36.894Z,83.10
2023-07-28T19:52:05.110Z,83.10
2023-07-28T19:54:33.468Z,83.50
2023-07-28T19:57:00.983Z,83.50
2023-07-28T19:59:28.681Z,83.60
2023-07-28T20:01:55.527Z,84.00
2023-07-28T20:04:23.076Z,84.00
2023-07-28T20:06:50.279Z,84.20
2023-07-28T20:09:17.036Z,84.50
2023-07-28T20:11:43.886Z,84.80
2023-07-28T20:14:12.125Z,84.90
2023-07-28T20:16:39.018Z,85.20
2023-07-28T20:19:07.006Z,85.80
2023-07-28T20:21:33.949Z,85.40
2023-07-28T20:24:00.983Z,85.60
2023-07-28T20:26:28.634Z,86.00
2023-07-28T20:28:55.597Z,85.90
2023-07-28T20:31:23.841Z,86.40
2023-07-28T20:33:50.806Z,86.40
2023-07-28T20:36:18.865Z,86.80
2023-07-28T20:38:45.947Z,87.10
2023-07-28T20:41:14.009Z,86.90
2023-07-28T20:43:40.790Z,87.20
2023-07-28T20:46:07.607Z,87.20
2023-07-28T20:48:34.385Z,86.80
2023-07-28T20:51:01.600Z,86.90
2023-07-28T20:53:32.242Z,86.80
2023-07-28T20:55:59.657Z,87.00
2023-07-28T20:58:26.397Z,86.80
2023-07-28T21:00:54.236Z,86.80
2023-07-28T21:03:21.159Z,86.80
2023-07-28T21:05:49.207Z,87.10
2023-07-28T21:08:16.248Z,86.80
2023-07-28T21:10:43.171Z,87.00
2023-07-28T21:13:15.373Z,86.90
2023-07-28T21:15:45.277Z,86.50
2023-07-28T21:18:12.285Z,86.90
2023-07-28T21:20:39.321Z,86.90
2023-07-28T21:23:06.510Z,86.90
2023-07-28T21:25:33.444Z,87.10
2023-07-28T21:28:00.840Z,87.00
2023-07-28T21:30:27.623Z,87.00
2023-07-28T21:33:05.255Z,87.00
2023-07-28T21:35:32.914Z,86.90
2023-07-28T21:38:00.089Z,86.70
2023-07-28T21:40:27.751Z,86.70
2023-07-28T21:42:54.720Z,86.40
2023-07-28T21:45:21.495Z,86.30
2023-07-28T21:47:48.505Z,86.40
2023-07-28T21:50:15.718Z,86.40
2023-07-28T21:52:44.068Z,86.40
2023-07-28T21:55:12.680Z,86.50
2023-07-28T21:57:45.027Z,86.40
2023-07-28T22:00:12.948Z,86.40
2023-07-28T22:02:40.766Z,86.40
2023-07-28T22:05:08.364Z,86.40
2023-07-28T22:07:36.947Z,86.40
2023-07-28T22:10:06.599Z,86.70
2023-07-28T22:12:35.292Z,86.70
2023-07-28T22:15:02.626Z,86.40
2023-07-28T22:17:29.734Z,86.50
2023-07-28T22:19:56.492Z,86.50
2023-07-28T22:22:24.107Z,86.60
2023-07-28T22:24:52.654Z,86.80
2023-07-28T22:27:19.389Z,86.90
2023-07-28T22:29:46.248Z,86.80
2023-07-28T22:32:13.110Z,86.90
2023-07-28T22:34:39.842Z,86.80
2023-07-28T22:37:06.884Z,86.70
2023-07-28T22:39:33.667Z,86.60
2023-07-28T22:42:00.587Z,86.50
2023-07-28T22:44:27.372Z,86.40
2023-07-28T22:46:54.122Z,86.40
2023-07-28T22:49:21.141Z,86.40
2023-07-28T22:51:48.100Z,86.30
2023-07-28T22:54:14.842Z,86.20
2023-07-28T22:56:41.779Z,86.20
2023-07-28T22:59:08.696Z,86.10
2023-07-28T23:01:35.512Z,86.00
2023-07-28T23:04:02.920Z,86.10
2023-07-28T23:06:31.978Z,86.30
2023-07-28T23:08:59.019Z,86.20
2023-07-28T23:11:25.764Z,86.10
2023-07-28T23:13:52.594Z,86.10
2023-07-28T23:16:19.616Z,86.10
2023-07-28T23:18:46.596Z,86.10
2023-07-28T23:21:13.592Z,86.30
2023-07-28T23:23:42.709Z,86.20
2023-07-28T23:26:09.560Z,86.20
2023-07-28T23:28:36.562Z,86.30
2023-07-28T23:31:13.797Z,86.30
2023-07-28T23:33:40.598Z,86.50
2023-07-28T23:36:10.071Z,86.80
2023-07-28T23:38:38.365Z,87.10
2023-07-28T23:41:11.074Z,87.10
2023-07-28T23:43:37.794Z,87.40
2023-07-28T23:46:04.893Z,87.60
2023-07-28T23:48:32.929Z,87.50
2023-07-28T23:50:59.864Z,87.80
2023-07-28T23:53:28.738Z,87.80
2023-07-28T23:55:55.563Z,87.80
2023-07-28T23:58:23.923Z,88.10
